»·PEaware :: N616SF KSNA-KAVX

N616SF :: KSNA-KAVX

FLIGHT INFORMATION

Flight Status: Arrived
Operator: Privately registered:
United States
More flights under this callsign
Pilot: Hunter C. (16715)
Aircraft: CESSNA 172 SKYHAWK
(C172)
More flights by this aircraft type
Origin: KSNA John Wayne-Orange Co
United States
Destination: KAVX Catalina
United States
More flights between these airports :: More routes between these airports
Route: +SLI V21 SXC
File this flight plan on PilotEdge
Remarks: +CW /
Altitude:
(Current/Filed)
4,000ft
Speed:
(Current/Filed)
120kts
Departed: 06-Feb-20 08:45 PM
Arrived: 06-Feb-20 09:29 PM
Distance/Time
Traveled:
32nm/0:44
Distance/Time
To Go:
Arrived

Flight Plot

Page will automatically refresh every two minutes.


Map Options




Map Legend


Flown Route
Filed Route
Departure Airport
Arrival Airport
Navaid (VOR, NDB)
Fix

Horizontal Profiles

Position Reports

Time Latitude Longitude Heading Altitude Ground
Speed
06-Feb-20 20:29 33.676205 -117.871104 212 60ft 0kts
06-Feb-20 20:30 33.676205 -117.871104 212 60ft 0kts
06-Feb-20 20:31 33.676205 -117.871104 212 60ft 0kts
06-Feb-20 20:32 33.676205 -117.871104 212 60ft 0kts
06-Feb-20 20:33 33.676205 -117.871104 212 60ft 0kts
06-Feb-20 20:34 33.676205 -117.871104 212 60ft 0kts
06-Feb-20 20:35 33.676205 -117.871104 212 60ft 0kts
06-Feb-20 20:36 33.676205 -117.871104 212 60ft 0kts
06-Feb-20 20:37 33.676205 -117.871104 212 60ft 0kts
06-Feb-20 20:38 33.676205 -117.871104 212 60ft 0kts
06-Feb-20 20:39 33.676145 -117.871074 148 60ft 4kts
06-Feb-20 20:40 33.675952 -117.870158 27 60ft 8kts
06-Feb-20 20:41 33.677943 -117.868925 27 60ft 16kts
06-Feb-20 20:42 33.681132 -117.867047 46 60ft 19kts
06-Feb-20 20:43 33.680991 -117.865948 135 60ft 16kts
06-Feb-20 20:44 33.671620 -117.872985 227 467ft 79kts
06-Feb-20 20:45 33.661023 -117.887796 229 1195ft 89kts
06-Feb-20 20:46 33.644019 -117.911750 229 2236ft 94kts
06-Feb-20 20:47 33.632469 -117.928002 229 2912ft 93kts
06-Feb-20 20:48 33.620358 -117.945036 229 3626ft 91kts
06-Feb-20 20:49 33.606420 -117.964543 229 4134ft 105kts
06-Feb-20 20:50 33.592254 -117.984636 232 4157ft 108kts
06-Feb-20 20:51 33.578021 -118.005772 229 4049ft 109kts
06-Feb-20 20:52 33.562017 -118.027902 228 4034ft 128kts
06-Feb-20 20:53 33.550533 -118.043744 228 4054ft 130kts
06-Feb-20 20:54 33.536246 -118.063400 228 4079ft 131kts
06-Feb-20 20:55 33.521936 -118.083066 229 4065ft 133kts
06-Feb-20 20:56 33.507334 -118.103532 228 3983ft 134kts
06-Feb-20 20:57 33.492498 -118.123765 228 3987ft 133kts
06-Feb-20 20:58 33.476628 -118.145338 228 3987ft 133kts
06-Feb-20 20:59 33.461123 -118.166350 228 3987ft 133kts
06-Feb-20 21:00 33.443160 -118.190618 228 3981ft 129kts
06-Feb-20 21:01 33.424769 -118.215368 228 3987ft 130kts
06-Feb-20 21:02 33.410103 -118.235039 228 3987ft 130kts
06-Feb-20 21:03 33.395449 -118.254635 228 3987ft 130kts
06-Feb-20 21:04 33.380406 -118.274691 228 3987ft 130kts
06-Feb-20 21:05 33.371211 -118.297435 260 3990ft 130kts
06-Feb-20 21:06 33.370405 -118.322573 270 3989ft 130kts
06-Feb-20 21:07 33.370750 -118.347777 271 3987ft 130kts
06-Feb-20 21:08 33.370995 -118.365382 271 3987ft 130kts
06-Feb-20 21:09 33.371850 -118.394395 272 3987ft 131kts
06-Feb-20 21:10 33.375449 -118.414639 312 3953ft 132kts
06-Feb-20 21:11 33.392250 -118.419662 5 3987ft 131kts
06-Feb-20 21:12 33.414075 -118.416025 10 3988ft 131kts
06-Feb-20 21:13 33.435723 -118.411365 7 3972ft 123kts
06-Feb-20 21:14 33.456100 -118.407834 8 3978ft 104kts
06-Feb-20 21:15 33.476556 -118.404387 6 3607ft 98kts
06-Feb-20 21:16 33.500714 -118.402136 341 3167ft 88kts
06-Feb-20 21:17 33.515662 -118.416292 319 3227ft 98kts
06-Feb-20 21:18 33.529902 -118.424110 16 3202ft 105kts
06-Feb-20 21:19 33.532188 -118.404453 150 3164ft 94kts
06-Feb-20 21:20 33.507481 -118.402337 177 2802ft 107kts
06-Feb-20 21:21 33.484942 -118.402014 185 2375ft 96kts
06-Feb-20 21:22 33.470663 -118.403779 186 2301ft 78kts
06-Feb-20 21:23 33.457476 -118.405393 185 2342ft 92kts
06-Feb-20 21:24 33.441350 -118.408420 181 2329ft 98kts
06-Feb-20 21:25 33.427050 -118.403321 166 2387ft 79kts
06-Feb-20 21:26 33.414176 -118.405258 205 2056ft 71kts
06-Feb-20 21:27 33.405675 -118.414582 230 1536ft 41kts
06-Feb-20 21:28 33.403934 -118.417099 140 1555ft 4kts
06-Feb-20 21:29 33.403498 -118.416235 116 1553ft 8kts
06-Feb-20 21:30 33.403424 -118.415533 41 1549ft 0kts
06-Feb-20 21:33 33.403289 -118.416626 0 1555ft 0kts

Navigation Log

Ident Type
Flight plan parsing failed, navigation log unavailable